Date,TemperatureHighF,TemperatureAvgF,TemperatureLowF,DewpointHighF,DewpointAvgF,DewpointLowF,HumidityHigh,HumidityAvg,HumidityLow,PressureMaxIn,PressureMinIn,WindSpeedMaxMPH,WindSpeedAvgMPH,GustSpeedMaxMPH,PrecipitationSumIn
2013-11-1,47,44,40,45,41,39,99,92,81,0.00,40.00,15,7,23,0.00
2013-11-2,45,39,30,39,34,-100,99,84,59,0.00,40.00,10,5,16,0.00
2013-11-3,50,39,25,38,30,25,99,75,47,0.00,40.00,10,5,21,0.00
2013-11-4,51,48,44,48,41,35,99,78,65,0.00,40.00,14,8,28,0.00
2013-11-5,50,46,35,50,44,34,99,95,68,0.00,40.00,6,3,10,0.00
2013-11-6,50,39,33,50,31,19,99,76,41,0.00,40.00,14,9,27,0.00
2013-11-7,39,34,29,31,29,27,98,84,66,0.00,40.00,9,4,15,0.00
2013-11-8,44,35,25,35,29,25,99,81,55,0.00,40.00,11,5,22,0.00
2013-11-9,49,45,39,42,34,-100,88,69,56,0.00,40.00,19,12,38,0.00
2013-11-10,49,42,38,30,29,27,70,59,44,0.00,40.00,15,8,24,0.00
2013-11-11,43,31,22,36,22,10,99,71,51,0.00,40.00,12,8,22,0.00
2013-11-12,29,22,16,15,11,10,77,63,45,0.00,40.00,11,7,17,0.00
2013-11-13,45,32,19,23,17,13,82,56,39,0.00,40.00,12,-3,27,0.00
2013-11-14,50,41,34,29,24,15,58,50,40,0.00,40.00,11,6,23,0.00
2013-11-15,54,43,31,38,33,28,92,68,47,0.00,40.00,7,3,11,0.00
2013-11-16,60,46,38,59,44,-100,99,95,85,0.00,40.00,11,8,24,0.00
2013-11-17,60,49,39,59,47,33,99,93,69,0.00,40.00,25,0,44,0.00
2013-11-18,39,33,26,33,24,22,85,71,63,0.00,40.00,21,13,36,0.00
2013-11-19,41,31,20,29,20,-100,99,76,46,0.00,40.00,9,5,19,0.00
2013-11-20,40,37,35,36,31,27,99,80,61,0.00,40.00,11,7,22,0.00
2013-11-21,41,38,33,40,37,33,99,98,94,0.00,40.00,11,3,18,0.00
2013-11-22,35,29,26,33,20,11,99,72,40,0.00,40.00,12,-2,21,0.00
2013-11-23,27,16,10,18,5,-100,81,61,46,0.00,40.00,16,10,24,0.00
2013-11-24,27,18,6,9,3,-100,90,59,35,0.00,40.00,13,6,29,0.00
2013-11-25,35,30,24,29,21,5,95,73,42,0.00,40.00,12,-3,30,0.00
2013-11-26,35,26,13,28,14,3,80,62,45,0.00,40.00,17,8,27,0.00
2013-11-27,28,20,11,15,10,4,89,66,46,0.00,40.00,10,6,17,0.00
2013-11-28,30,25,22,16,14,12,79,62,53,0.00,40.00,11,4,18,0.00
2013-11-29,32,22,9,21,16,9,99,81,53,0.00,40.00,9,3,16,0.00
2013-11-30,46,36,29,31,26,-100,84,68,49,0.00,40.00,12,5,20,0.00